Time;durP1;ratioP1;P1;durP2;ratioP2;P2;SDS_P1;SDS_P2;PMS_P1;PMS_P2;Temp;Humidity;BMP_temperature;BMP_pressure;BME280_temperature;BME280_humidity;BME280_pressure;Samples;Min_cycle;Max_cycle;Signal;HPM_P1;HPM_P2
2022/04/06 00:00:37;;;;;;;0.90;0.80;;;;;5.50;96137.00;;;;5108174;28;20609;-73
2022/04/06 00:03:26;;;;;;;0.97;0.87;;;;;5.60;96142.00;;;;5107069;28;20203;-73
2022/04/06 00:06:15;;;;;;;0.67;0.60;;;;;5.50;96139.00;;;;5108991;28;20684;-73
2022/04/06 00:09:11;;;;;;;3.07;1.30;;;;;5.40;96134.00;;;;5107839;28;20914;-73
2022/04/06 00:12:01;;;;;;;1.43;1.20;;;;;5.10;96143.00;;;;5112190;28;20217;-73
2022/04/06 00:14:50;;;;;;;1.30;1.07;;;;;4.90;96136.00;;;;5107256;28;20210;-73
2022/04/06 00:17:40;;;;;;;2.27;0.93;;;;;5.00;96133.00;;;;5111993;28;20564;-73
2022/04/06 00:20:29;;;;;;;1.70;1.00;;;;;4.90;96125.00;;;;5100210;28;20218;-73
2022/04/06 00:23:18;;;;;;;1.67;1.57;;;;;4.70;96117.00;;;;5111842;28;20203;-73
2022/04/06 00:26:07;;;;;;;3.20;1.23;;;;;4.70;96117.00;;;;5111879;28;20217;-73
2022/04/06 00:28:57;;;;;;;1.27;1.20;;;;;4.60;96118.00;;;;5111388;28;20205;-73
2022/04/06 00:31:46;;;;;;;2.30;1.00;;;;;4.40;96121.00;;;;5111980;28;20424;-73
2022/04/06 00:37:42;;;;;;;1.50;1.33;;;;;4.40;96120.00;;;;5090337;28;20426;-73
2022/04/06 00:40:32;;;;;;;2.43;1.33;;;;;4.20;96121.00;;;;5090156;28;20817;-72
2022/04/06 00:43:21;;;;;;;1.43;1.30;;;;;4.30;96124.00;;;;5100081;28;20428;-72
2022/04/06 00:46:13;;;;;;;3.20;1.43;;;;;4.50;96132.00;;;;5112119;28;20440;-72
2022/04/06 00:49:02;;;;;;;2.20;1.40;;;;;4.70;96128.00;;;;5108622;28;20429;-72
2022/04/06 00:51:51;;;;;;;1.60;1.47;;;;;4.70;96123.00;;;;5112335;28;20425;-72
2022/04/06 00:54:41;;;;;;;1.60;1.03;;;;;4.80;96129.00;;;;5099885;28;20436;-72
2022/04/06 00:57:31;;;;;;;1.87;1.10;;;;;4.70;96129.00;;;;5110871;28;20474;-72
2022/04/06 01:00:20;;;;;;;1.70;1.50;;;;;4.60;96122.00;;;;5111033;28;20230;-72
2022/04/06 01:03:11;;;;;;;1.17;1.03;;;;;4.50;96129.00;;;;5110786;28;20214;-72
2022/04/06 01:06:00;;;;;;;1.07;0.97;;;;;4.50;96131.00;;;;5111478;28;20209;-72
2022/04/06 01:08:49;;;;;;;1.30;1.20;;;;;4.50;96127.00;;;;5110294;28;20195;-72
2022/04/06 01:11:38;;;;;;;2.17;1.10;;;;;4.50;96123.00;;;;5110786;28;20428;-72
2022/04/06 01:14:27;;;;;;;2.73;1.23;;;;;4.40;96125.00;;;;5098072;28;20433;-72
2022/04/06 01:17:16;;;;;;;3.73;1.20;;;;;4.40;96119.00;;;;5099444;28;20424;-72
2022/04/06 01:20:08;;;;;;;1.40;1.30;;;;;4.40;96112.00;;;;5092368;28;21011;-72
2022/04/06 01:22:59;;;;;;;1.97;1.60;;;;;4.20;96126.00;;;;5090087;28;20436;-73
2022/04/06 01:25:48;;;;;;;1.10;0.70;;;;;3.60;96118.00;;;;5090040;28;20932;-72
2022/04/06 01:28:37;;;;;;;1.43;1.30;;;;;3.90;96114.00;;;;5097478;28;20421;-72
2022/04/06 01:31:26;;;;;;;1.20;1.10;;;;;3.90;96107.00;;;;5110364;28;20467;-73
2022/04/06 01:34:16;;;;;;;9.63;1.43;;;;;3.70;96112.00;;;;5095527;28;20430;-73
2022/04/06 01:37:06;;;;;;;1.07;1.00;;;;;3.70;96116.00;;;;5088957;28;20777;-73
2022/04/06 01:39:57;;;;;;;1.37;1.27;;;;;3.50;96107.00;;;;5096608;28;20483;-73
2022/04/06 01:42:46;;;;;;;1.50;1.40;;;;;3.40;96102.00;;;;5109992;28;20435;-73
2022/04/06 01:45:35;;;;;;;1.73;1.63;;;;;3.60;96100.00;;;;5110751;28;20844;-72
2022/04/06 01:48:24;;;;;;;1.40;1.30;;;;;3.90;96095.00;;;;5108258;28;20425;-73
2022/04/06 01:54:20;;;;;;;1.30;1.20;;;;;4.10;96083.00;;;;5107482;28;20428;-73
2022/04/06 01:57:10;;;;;;;1.57;1.40;;;;;4.10;96082.00;;;;5109986;28;20780;-73
2022/04/06 02:00:00;;;;;;;1.53;1.37;;;;;4.00;96095.00;;;;5109281;28;20472;-73
2022/04/06 02:02:51;;;;;;;1.83;1.17;;;;;3.80;96082.00;;;;5108742;28;20444;-73
2022/04/06 02:05:40;;;;;;;1.50;1.40;;;;;3.70;96092.00;;;;5109813;28;20433;-73
2022/04/06 02:08:29;;;;;;;1.83;1.30;;;;;3.80;96108.00;;;;5108455;28;20939;-73
2022/04/06 02:11:18;;;;;;;1.30;1.20;;;;;3.80;96118.00;;;;5089712;28;20449;-73
2022/04/06 02:14:09;;;;;;;1.63;1.53;;;;;3.60;96117.00;;;;5104318;28;20425;-73
2022/04/06 02:16:58;;;;;;;1.97;1.13;;;;;3.30;96115.00;;;;5109149;28;20432;-73
2022/04/06 02:19:47;;;;;;;1.47;1.37;;;;;3.50;96110.00;;;;5092139;28;20504;-73
2022/04/06 02:22:36;;;;;;;1.60;1.50;;;;;3.70;96117.00;;;;5087093;28;20426;-73
2022/04/06 02:25:26;;;;;;;1.47;1.17;;;;;3.80;96112.00;;;;5098394;28;20436;-73
2022/04/06 02:28:15;;;;;;;1.93;1.73;;;;;3.60;96113.00;;;;5104253;28;20426;-73
2022/04/06 02:31:05;;;;;;;1.50;1.40;;;;;3.30;96126.00;;;;5089890;28;20444;-73
2022/04/06 02:33:54;;;;;;;2.13;1.97;;;;;3.20;96115.00;;;;5098959;28;20444;-73
2022/04/06 02:36:43;;;;;;;2.33;1.20;;;;;3.40;96115.00;;;;5109894;28;20431;-73
2022/04/06 02:39:33;;;;;;;1.77;1.40;;;;;3.70;96113.00;;;;5108257;28;20468;-72
2022/04/06 02:42:22;;;;;;;2.60;1.93;;;;;3.70;96122.00;;;;5108995;28;20420;-73
2022/04/06 02:45:11;;;;;;;1.50;1.40;;;;;3.60;96112.00;;;;5109229;28;20428;-73
2022/04/06 02:48:05;;;;;;;2.50;1.57;;;;;3.60;96108.00;;;;5107936;28;20432;-72
2022/04/06 02:50:54;;;;;;;1.47;1.37;;;;;3.80;96111.00;;;;5107149;28;20455;-72
2022/04/06 02:53:43;;;;;;;1.53;1.40;;;;;3.90;96106.00;;;;5094755;28;20433;-72
2022/04/06 02:56:32;;;;;;;1.33;1.23;;;;;3.80;96103.00;;;;5095540;28;20417;-73
2022/04/06 02:59:21;;;;;;;3.70;1.93;;;;;3.50;96098.00;;;;5103546;28;20458;-73
2022/04/06 03:02:10;;;;;;;1.77;1.67;;;;;3.20;96096.00;;;;5089236;28;20445;-73
2022/04/06 03:05:01;;;;;;;1.47;1.47;;;;;2.90;96098.00;;;;5088878;28;20421;-73
2022/04/06 03:07:50;;;;;;;1.87;1.47;;;;;2.90;96098.00;;;;5095752;28;20421;-73
2022/04/06 03:10:39;;;;;;;2.03;1.67;;;;;3.00;96098.00;;;;5108613;28;20459;-73
2022/04/06 03:13:28;;;;;;;3.07;1.97;;;;;3.10;96088.00;;;;5103922;28;20428;-73
2022/04/06 03:16:17;;;;;;;4.20;1.80;;;;;3.10;96090.00;;;;5102386;28;20428;-73
2022/04/06 03:19:06;;;;;;;1.70;1.40;;;;;2.90;96088.00;;;;5098234;28;20813;-73
2022/04/06 03:21:56;;;;;;;2.40;1.70;;;;;3.00;96082.00;;;;5094868;28;20946;-74
2022/04/06 03:24:46;;;;;;;3.17;2.07;;;;;3.30;96080.00;;;;5108939;28;20433;-73
2022/04/06 03:27:35;;;;;;;2.77;1.60;;;;;3.30;96087.00;;;;5108487;28;20799;-72
2022/04/06 03:30:24;;;;;;;1.63;1.53;;;;;3.60;96075.00;;;;5108152;28;20443;-72
2022/04/06 03:33:15;;;;;;;3.47;1.50;;;;;3.70;96081.00;;;;5099268;28;20425;-73
2022/04/06 03:36:05;;;;;;;2.53;1.73;;;;;3.60;96082.00;;;;5087617;28;20422;-73
2022/04/06 03:38:55;;;;;;;1.47;1.37;;;;;3.60;96081.00;;;;5087596;28;20429;-73
2022/04/06 03:41:44;;;;;;;1.67;1.57;;;;;3.60;96075.00;;;;5097461;28;21017;-72
2022/04/06 03:44:33;;;;;;;2.47;2.27;;;;;3.50;96085.00;;;;5094970;28;20427;-73
2022/04/06 03:47:29;;;;;;;2.53;1.87;;;;;3.50;96091.00;;;;5112435;28;20433;-73
2022/04/06 03:50:18;;;;;;;1.33;1.23;;;;;3.60;96080.00;;;;5111225;28;20436;-73
2022/04/06 03:53:07;;;;;;;2.00;1.80;;;;;3.70;96088.00;;;;5105376;28;20435;-73
2022/04/06 03:55:57;;;;;;;3.63;1.50;;;;;3.60;96086.00;;;;5099243;28;20429;-73
2022/04/06 03:58:46;;;;;;;2.00;1.80;;;;;3.40;96083.00;;;;5111786;28;20432;-73
2022/04/06 04:01:36;;;;;;;2.03;1.50;;;;;3.20;96077.00;;;;5111959;28;20850;-73
2022/04/06 04:04:26;;;;;;;1.60;1.50;;;;;3.20;96082.00;;;;5110811;28;20436;-73
2022/04/06 04:07:21;;;;;;;6.10;1.87;;;;;3.40;96083.00;;;;5098053;28;20443;-73
2022/04/06 04:10:11;;;;;;;2.23;2.03;;;;;3.30;96088.00;;;;5113446;28;20471;-73
2022/04/06 04:13:02;;;;;;;4.43;1.67;;;;;3.00;96081.00;;;;5105354;28;20420;-73
2022/04/06 04:15:51;;;;;;;2.07;1.87;;;;;3.00;96078.00;;;;5106178;28;20432;-73
2022/04/06 04:18:40;;;;;;;2.73;2.20;;;;;2.90;96080.00;;;;5102725;28;20428;-72
2022/04/06 04:21:32;;;;;;;2.47;2.27;;;;;3.10;96085.00;;;;5107991;28;20811;-73
2022/04/06 04:24:21;;;;;;;1.90;1.47;;;;;3.20;96091.00;;;;5103548;28;20428;-73
2022/04/06 04:27:10;;;;;;;2.50;2.30;;;;;3.20;96095.00;;;;5108967;28;20424;-73
2022/04/06 04:30:01;;;;;;;2.47;2.13;;;;;3.20;96092.00;;;;5108257;28;20445;-72
2022/04/06 04:32:52;;;;;;;3.30;1.83;;;;;3.10;96093.00;;;;5104523;28;20427;-72
2022/04/06 04:35:41;;;;;;;2.20;1.90;;;;;3.40;96104.00;;;;5109470;28;20445;-72
2022/04/06 04:38:30;;;;;;;3.50;2.20;;;;;3.30;96100.00;;;;5110881;28;20806;-73
2022/04/06 04:41:19;;;;;;;1.53;1.30;;;;;3.20;96103.00;;;;5098975;28;21052;-73
2022/04/06 04:44:08;;;;;;;2.83;1.97;;;;;3.20;96093.00;;;;5107350;28;20421;-72
2022/04/06 04:46:59;;;;;;;2.67;2.40;;;;;3.10;96090.00;;;;5110575;28;20425;-72
2022/04/06 04:49:48;;;;;;;1.53;1.43;;;;;2.70;96089.00;;;;5106338;28;20448;-72
2022/04/06 04:52:37;;;;;;;2.37;2.17;;;;;2.90;96089.00;;;;5107188;28;20424;-72
2022/04/06 04:55:26;;;;;;;7.93;4.37;;;;;3.00;96088.00;;;;5109151;28;20969;-72
2022/04/06 04:58:15;;;;;;;3.10;2.43;;;;;2.80;96081.00;;;;5110461;28;20417;-72
2022/04/06 05:01:05;;;;;;;1.87;1.77;;;;;2.80;96083.00;;;;5106011;28;21013;-72
2022/04/06 05:03:55;;;;;;;2.33;1.43;;;;;2.90;96090.00;;;;5105175;28;20425;-72
2022/04/06 05:06:44;;;;;;;3.20;2.27;;;;;3.10;96085.00;;;;5093036;28;20829;-72
2022/04/06 05:09:33;;;;;;;3.70;2.47;;;;;3.10;96091.00;;;;5099089;28;20858;-72
2022/04/06 05:12:24;;;;;;;9.37;4.60;;;;;3.20;96101.00;;;;5108179;28;20441;-73
2022/04/06 05:15:13;;;;;;;7.47;4.73;;;;;3.20;96098.00;;;;5101453;28;20426;-73
2022/04/06 05:18:02;;;;;;;2.63;2.43;;;;;2.90;96093.00;;;;5108195;28;20805;-72
2022/04/06 05:20:53;;;;;;;3.93;2.40;;;;;2.90;96087.00;;;;5108800;28;20465;-73
2022/04/06 05:23:42;;;;;;;2.90;2.23;;;;;3.00;96092.00;;;;5108839;28;20425;-72
2022/04/06 05:26:31;;;;;;;1.93;1.83;;;;;3.20;96086.00;;;;5105059;28;20425;-73
2022/04/06 05:29:20;;;;;;;1.87;1.70;;;;;3.20;96087.00;;;;5100241;28;20452;-72
2022/04/06 05:32:09;;;;;;;3.93;3.43;;;;;3.20;96088.00;;;;5104218;28;20942;-72
2022/04/06 05:34:58;;;;;;;10.77;5.37;;;;;3.20;96092.00;;;;5099217;28;20441;-72
2022/04/06 05:37:49;;;;;;;4.93;4.00;;;;;3.40;96094.00;;;;5102358;28;20445;-72
2022/04/06 05:40:38;;;;;;;4.47;3.63;;;;;3.80;96101.00;;;;5106674;28;20452;-72
2022/04/06 05:43:27;;;;;;;5.23;2.77;;;;;4.10;96099.00;;;;5101594;28;20958;-73
2022/04/06 05:46:16;;;;;;;6.93;4.43;;;;;4.20;96108.00;;;;5103218;28;20414;-72
2022/04/06 05:49:05;;;;;;;12.70;8.07;;;;;4.30;96115.00;;;;5107807;28;20428;-72
2022/04/06 05:51:54;;;;;;;14.07;8.57;;;;;4.50;96111.00;;;;5109431;28;20424;-72
2022/04/06 05:54:45;;;;;;;8.20;6.13;;;;;4.50;96116.00;;;;5107896;28;20433;-72
2022/04/06 05:57:34;;;;;;;5.03;2.90;;;;;4.40;96111.00;;;;5104222;28;20443;-72
2022/04/06 06:00:23;;;;;;;4.13;2.13;;;;;4.30;96111.00;;;;5096585;28;20975;-72
2022/04/06 06:03:12;;;;;;;5.53;3.00;;;;;4.60;96108.00;;;;5109114;28;20806;-72
2022/04/06 06:06:01;;;;;;;3.47;2.87;;;;;4.70;96110.00;;;;5107658;28;20471;-72
2022/04/06 06:08:50;;;;;;;3.63;2.57;;;;;4.70;96115.00;;;;5108754;28;20433;-72
2022/04/06 06:11:41;;;;;;;12.23;4.67;;;;;5.10;96114.00;;;;5110401;28;20428;-72
2022/04/06 06:14:30;;;;;;;5.43;4.63;;;;;5.30;96109.00;;;;5099608;28;20438;-72
2022/04/06 06:17:19;;;;;;;7.73;5.23;;;;;5.40;96110.00;;;;5106516;28;20421;-72
2022/04/06 06:20:09;;;;;;;15.87;11.73;;;;;5.60;96119.00;;;;5109700;28;20448;-72
2022/04/06 06:22:58;;;;;;;10.20;5.93;;;;;5.50;96107.00;;;;5109175;28;20475;-72
2022/04/06 06:25:47;;;;;;;3.90;1.93;;;;;5.40;96102.00;;;;5109692;28;20218;-72
2022/04/06 06:28:39;;;;;;;8.50;4.97;;;;;5.70;96113.00;;;;5109753;28;20206;-73
2022/04/06 06:31:29;;;;;;;6.27;3.50;;;;;6.00;96112.00;;;;5102658;28;20198;-72
2022/04/06 06:34:18;;;;;;;7.60;4.10;;;;;6.10;96107.00;;;;5101227;28;20206;-72
2022/04/06 06:37:07;;;;;;;4.63;3.43;;;;;6.40;96113.00;;;;5104352;28;20199;-73
2022/04/06 06:39:56;;;;;;;4.20;2.70;;;;;6.70;96104.00;;;;5105520;28;20218;-73
2022/04/06 06:42:45;;;;;;;4.53;3.27;;;;;6.80;96096.00;;;;5101892;28;20690;-72
2022/04/06 06:45:35;;;;;;;3.83;2.47;;;;;7.10;96093.00;;;;5098886;28;20217;-72
2022/04/06 06:48:24;;;;;;;5.37;3.33;;;;;7.20;96101.00;;;;5102882;28;20205;-72
2022/04/06 06:51:14;;;;;;;5.67;3.53;;;;;7.60;96101.00;;;;5099258;28;20214;-73
2022/04/06 06:54:04;;;;;;;5.10;3.30;;;;;8.10;96099.00;;;;5103950;28;20207;-73
2022/04/06 06:56:53;;;;;;;7.77;3.60;;;;;8.20;96093.00;;;;5101063;28;20685;-73
2022/04/06 06:59:42;;;;;;;4.40;3.67;;;;;8.30;96095.00;;;;5108580;28;20238;-73
2022/04/06 07:02:32;;;;;;;7.50;3.23;;;;;8.30;96108.00;;;;5106417;28;20214;-73
2022/04/06 07:05:22;;;;;;;9.63;3.17;;;;;8.20;96086.00;;;;5108827;28;20202;-74
2022/04/06 07:08:11;;;;;;;6.60;3.60;;;;;8.60;96090.00;;;;5098739;28;20194;-74
2022/04/06 07:11:00;;;;;;;5.07;3.07;;;;;9.00;96075.00;;;;5101092;28;20241;-73
2022/04/06 07:13:49;;;;;;;6.83;3.43;;;;;9.20;96078.00;;;;5107506;28;20194;-73
2022/04/06 07:16:38;;;;;;;6.87;3.03;;;;;9.50;96080.00;;;;5109223;28;20213;-73
2022/04/06 07:19:29;;;;;;;4.87;3.07;;;;;9.40;96072.00;;;;5096883;28;20226;-72
2022/04/06 07:22:18;;;;;;;6.77;3.53;;;;;9.60;96077.00;;;;5102523;28;20696;-71
2022/04/06 07:25:08;;;;;;;6.10;3.03;;;;;9.90;96072.00;;;;5105758;28;20207;-71
2022/04/06 07:27:57;;;;;;;4.20;2.80;;;;;10.20;96070.00;;;;5091110;28;20206;-72
2022/04/06 07:30:46;;;;;;;5.77;3.00;;;;;10.50;96077.00;;;;5092262;28;20234;-71
2022/04/06 07:33:36;;;;;;;8.00;4.60;;;;;10.70;96073.00;;;;5102517;28;20206;-71
2022/04/06 07:36:27;;;;;;;10.37;4.17;;;;;10.90;96085.00;;;;5113484;28;20225;-71
2022/04/06 07:39:16;;;;;;;7.80;3.03;;;;;11.10;96078.00;;;;5112269;28;20194;-69
2022/04/06 07:42:05;;;;;;;4.23;2.77;;;;;11.10;96079.00;;;;5113208;28;20465;-69
2022/04/06 07:44:56;;;;;;;4.60;2.90;;;;;11.30;96084.00;;;;5108657;28;20195;-69
2022/04/06 07:47:45;;;;;;;5.00;2.57;;;;;11.30;96089.00;;;;5105886;28;20210;-69
2022/04/06 07:50:34;;;;;;;9.97;3.73;;;;;11.80;96091.00;;;;5110457;28;20229;-69
2022/04/06 07:53:25;;;;;;;4.30;3.10;;;;;11.80;96088.00;;;;5109476;28;20195;-69
2022/04/06 07:56:14;;;;;;;5.10;3.33;;;;;12.00;96092.00;;;;5110187;28;20198;-69
2022/04/06 07:59:03;;;;;;;4.70;2.73;;;;;12.20;96093.00;;;;5104997;28;20281;-69
2022/04/06 08:01:53;;;;;;;3.60;3.13;;;;;12.30;96097.00;;;;5093489;28;20215;-68
2022/04/06 08:04:42;;;;;;;3.83;2.07;;;;;12.50;96098.00;;;;5100830;28;20209;-69
2022/04/06 08:07:31;;;;;;;4.33;2.47;;;;;12.80;96098.00;;;;5103093;28;20587;-69
2022/04/06 08:10:22;;;;;;;3.80;2.60;;;;;12.70;96093.00;;;;5109801;28;20226;-69
2022/04/06 08:13:11;;;;;;;6.53;2.50;;;;;13.10;96098.00;;;;5103544;28;20201;-69
2022/04/06 08:16:00;;;;;;;3.23;2.13;;;;;13.20;96090.00;;;;5100641;28;20205;-69
2022/04/06 08:18:49;;;;;;;5.80;1.80;;;;;13.40;96095.00;;;;5100686;28;20199;-69
2022/04/06 08:21:50;;;;;;;2.70;1.63;;;12.60;99.90;13.70;96099.00;;;;5109625;28;20210;-70
2022/04/06 08:24:40;;;;;;;2.37;1.70;;;12.70;99.90;13.90;96095.00;;;;5105656;28;20198;-69
2022/04/06 08:27:36;;;;;;;2.80;1.87;;;12.80;99.90;13.80;96097.00;;;;5108459;28;20276;-69
2022/04/06 08:30:27;;;;;;;6.70;1.90;;;13.00;99.90;13.70;96100.00;;;;5110382;28;20226;-69
2022/04/06 08:33:20;;;;;;;3.10;1.90;;;13.00;99.90;14.20;96107.00;;;;5109780;28;20199;-69
2022/04/06 08:36:21;;;;;;;1.60;1.50;;;13.20;99.90;14.20;96101.00;;;;5110089;28;20203;-69
2022/04/06 08:39:19;;;;;;;1.80;1.70;;;13.30;99.90;14.50;96109.00;;;;5105394;28;20203;-69
2022/04/06 08:42:20;;;;;;;5.00;2.30;;;13.50;99.90;14.60;96094.00;;;;5108482;28;20691;-69
2022/04/06 08:45:26;;;;;;;2.73;1.77;;;13.60;99.90;14.80;96092.00;;;;5105597;28;20665;-69
2022/04/06 08:48:14;;;;;;;2.77;1.30;;;13.80;99.90;15.10;96093.00;;;;5106241;28;20206;-69
2022/04/06 08:51:07;;;;;;;1.80;1.60;;;13.90;99.90;15.40;96096.00;;;;5108328;28;20234;-69
2022/04/06 08:53:57;;;;;;;3.60;1.47;;;14.10;99.90;15.60;96099.00;;;;5093685;28;20206;-69
2022/04/06 08:56:45;;;;;;;5.30;2.27;;;14.30;99.90;15.80;96093.00;;;;5099460;28;20206;-69
2022/04/06 08:59:34;;;;;;;2.43;1.97;;;14.50;99.90;15.70;96092.00;;;;5110162;28;20226;-69
2022/04/06 09:02:25;;;;;;;2.93;1.30;;;14.70;99.90;16.00;96089.00;;;;5105108;28;20206;-69
2022/04/06 09:05:13;;;;;;;2.93;1.93;;;14.80;99.90;16.10;96086.00;;;;5098539;28;20674;-69
2022/04/06 09:08:04;;;;;;;1.40;1.00;;;15.00;99.90;16.30;96090.00;;;;5108371;28;20209;-69
2022/04/06 09:11:08;;;;;;;4.70;1.73;;;15.10;98.60;16.60;96083.00;;;;5098592;28;20687;-69
2022/04/06 09:14:02;;;;;;;3.40;1.93;;;15.30;97.80;16.80;96081.00;;;;5095184;28;20239;-69
2022/04/06 09:17:03;;;;;;;4.07;2.30;;;15.50;97.90;17.00;96075.00;;;;5107601;28;20203;-69
2022/04/06 09:19:53;;;;;;;3.33;1.73;;;15.70;97.50;16.90;96076.00;;;;5103193;28;20233;-69
2022/04/06 09:22:42;;;;;;;3.67;1.93;;;15.90;95.50;16.90;96076.00;;;;5097938;28;20222;-69
2022/04/06 09:25:35;;;;;;;4.03;2.20;;;16.00;93.40;16.80;96066.00;;;;5105040;28;20198;-70
2022/04/06 09:28:24;;;;;;;3.60;1.73;;;16.10;92.40;17.40;96062.00;;;;5108631;28;20666;-70
2022/04/06 09:31:16;;;;;;;10.20;2.07;;;16.20;93.50;17.60;96062.00;;;;5098541;28;20219;-69
2022/04/06 09:34:04;;;;;;;4.30;2.23;;;16.40;92.10;17.70;96058.00;;;;5091581;28;20229;-70
2022/04/06 09:36:57;;;;;;;3.10;1.80;;;16.50;91.00;17.30;96048.00;;;;5089021;28;20210;-69
2022/04/06 09:39:47;;;;;;;2.13;1.90;;;16.60;87.30;17.90;96048.00;;;;5102349;28;20219;-69
2022/04/06 09:42:35;;;;;;;3.73;2.03;;;16.60;88.90;17.90;96041.00;;;;5101885;28;20248;-69
2022/04/06 09:48:53;;;;;;;3.57;1.87;;;16.80;83.80;17.70;96037.00;;;;5107139;28;20202;-70
2022/04/06 09:51:44;;;;;;;7.83;2.20;;;16.80;86.50;18.30;96033.00;;;;5110366;27;20193;-70
2022/04/06 09:54:37;;;;;;;2.80;2.00;;;17.00;85.70;17.40;96028.00;;;;5102690;28;20199;-70
2022/04/06 09:57:26;;;;;;;5.33;2.03;;;17.10;79.50;17.70;96026.00;;;;5103974;27;20197;-70
2022/04/06 10:00:18;;;;;;;3.03;2.37;;;17.10;80.90;17.40;96021.00;;;;5109244;27;20238;-70
2022/04/06 10:03:08;;;;;;;2.90;2.57;;;17.20;78.30;17.90;96012.00;;;;5104293;28;20697;-69
2022/04/06 10:05:59;;;;;;;3.93;2.40;;;17.20;78.30;17.90;96006.00;;;;5101157;28;20231;-69
2022/04/06 10:08:50;;;;;;;5.10;3.13;;;17.20;77.10;18.00;96010.00;;;;5107579;27;20206;-70
2022/04/06 10:11:41;;;;;;;6.67;3.10;;;17.30;77.00;19.00;96020.00;;;;5113175;27;20202;-70
2022/04/06 10:14:31;;;;;;;6.97;3.50;;;17.50;78.90;19.40;96001.00;;;;5111233;27;20214;-69
2022/04/06 10:17:20;;;;;;;4.30;3.10;;;17.80;76.40;17.90;95990.00;;;;5099768;28;20214;-69
2022/04/06 10:20:16;;;;;;;4.63;2.70;;;18.00;71.20;19.30;95990.00;;;;5097046;28;20233;-70
2022/04/06 10:23:16;;;;;;;3.77;2.90;;;18.00;73.60;19.70;95992.00;;;;5092697;28;20665;-70
2022/04/06 10:26:40;;;;;;;4.80;3.77;;;18.20;74.60;19.30;95988.00;;;;5102352;28;20195;-70
2022/04/06 10:29:30;;;;;;;5.40;3.43;;;18.40;69.20;19.90;95978.00;;;;5108564;28;20226;-70
2022/04/06 10:32:34;;;;;;;3.97;3.57;;;18.50;70.30;20.20;95984.00;;;;5099511;28;20681;-70
2022/04/06 10:35:26;;;;;;;5.40;4.87;;;18.80;70.70;20.00;95982.00;;;;5099513;28;20203;-69
2022/04/06 10:38:18;;;;;;;5.80;5.20;;;18.90;69.20;19.20;95963.00;;;;5102422;28;20195;-70
2022/04/06 10:41:09;;;;;;;5.50;3.77;;;19.00;66.30;19.10;95957.00;;;;5103727;27;20214;-70
2022/04/06 10:44:04;;;;;;;5.17;4.37;;;19.00;66.70;19.30;95952.00;;;;5097123;28;20245;-70
2022/04/06 10:47:07;;;;;;;8.00;4.67;;;18.90;64.90;19.10;95956.00;;;;5096357;28;20256;-69
2022/04/06 10:50:22;;;;;;;5.50;4.97;;;18.90;65.70;20.00;95946.00;;;;5100376;28;20221;-69
2022/04/06 10:53:29;;;;;;;6.03;4.43;;;19.10;65.30;20.20;95936.00;;;;5098704;27;20191;-72
2022/04/06 10:56:18;;;;;;;6.37;4.67;;;19.00;66.50;19.40;95936.00;;;;5105183;27;20202;-69
2022/04/06 10:59:13;;;;;;;5.63;3.97;;;19.20;63.50;21.00;95930.00;;;;5089353;28;20209;-70
2022/04/06 11:02:23;;;;;;;7.60;3.97;;;19.40;65.30;19.50;95922.00;;;;5095263;28;20215;-69
2022/04/06 11:05:13;;;;;;;5.20;3.73;;;19.40;61.00;20.10;95918.00;;;;5088215;28;20239;-69
2022/04/06 11:11:40;;;;;;;5.67;3.17;;;19.40;61.10;19.60;95905.00;;;;5106306;28;20226;-70
2022/04/06 11:14:29;;;;;;;5.63;4.37;;;19.40;61.10;20.00;95901.00;;;;5098920;28;20215;-69
2022/04/06 11:17:41;;;;;;;6.50;5.13;;;19.50;60.20;19.80;95906.00;;;;5111783;28;20191;-69
2022/04/06 11:20:32;;;;;;;7.73;4.50;;;19.60;60.00;19.30;95896.00;;;;5108285;28;20217;-70
2022/04/06 11:23:21;;;;;;;6.13;5.50;;;19.40;58.70;18.40;95878.00;;;;5105577;28;20244;-67
2022/04/06 11:26:10;;;;;;;4.83;4.07;;;19.30;58.70;17.70;95875.00;;;;5107034;28;20248;-69
2022/04/06 11:28:59;;;;;;;5.07;4.10;;;18.70;59.90;18.10;95868.00;;;;5098057;28;20203;-70
2022/04/06 11:32:00;;;;;;;10.40;4.67;;;18.30;60.70;19.00;95870.00;;;;5113696;28;20581;-70
2022/04/06 11:34:50;;;;;;;5.47;4.30;;;18.30;60.50;20.60;95862.00;;;;5101484;28;20717;-70
2022/04/06 11:37:46;;;;;;;6.53;4.10;;;18.70;60.10;21.90;95873.00;;;;5103835;28;20315;-71
2022/04/06 11:40:37;;;;;;;3.03;2.80;;;19.30;61.50;22.70;95865.00;;;;5100983;28;20219;-71
2022/04/06 11:43:28;;;;;;;3.73;3.40;;;20.10;61.60;20.00;95858.00;;;;5093193;28;20203;-72
2022/04/06 11:46:17;;;;;;;4.70;3.13;;;20.20;57.30;20.60;95847.00;;;;5106120;28;20195;-71
2022/04/06 11:49:11;;;;;;;3.47;3.10;;;20.00;57.30;22.10;95847.00;;;;5106895;28;20214;-71
2022/04/06 11:52:01;;;;;;;3.47;3.17;;;20.40;58.60;20.80;95848.00;;;;5101127;28;20205;-71
2022/04/06 11:54:54;;;;;;;3.97;3.57;;;20.70;56.40;20.60;95829.00;;;;5096039;28;20684;-70
2022/04/06 11:57:45;;;;;;;3.03;2.70;;;20.70;55.00;20.80;95828.00;;;;5118834;28;20210;-71
2022/04/06 12:00:35;;;;;;;5.10;3.73;;;20.80;55.10;22.00;95827.00;;;;5113338;28;20704;-71
2022/04/06 12:03:29;;;;;;;4.73;4.23;;;20.90;56.20;23.30;95833.00;;;;5113394;28;20233;-71
2022/04/06 12:06:18;;;;;;;4.10;3.53;;;21.20;58.40;21.70;95812.00;;;;5099864;28;20657;-70
2022/04/06 12:09:08;;;;;;;4.87;3.77;;;21.70;54.30;21.50;95811.00;;;;5110300;28;20210;-71
2022/04/06 12:11:56;;;;;;;3.47;3.17;;;21.40;55.90;23.10;95807.00;;;;5105661;28;20210;-71
2022/04/06 12:14:47;;;;;;;4.90;4.00;;;21.60;56.20;23.00;95803.00;;;;5114597;27;20211;-71
2022/04/06 12:17:36;;;;;;;6.70;3.60;;;22.00;55.40;23.30;95795.00;;;;5117632;27;20192;-71
2022/04/06 12:20:28;;;;;;;5.60;4.23;;;22.40;53.70;22.10;95792.00;;;;5094220;28;20599;-71
2022/04/06 12:23:19;;;;;;;3.90;3.50;;;22.70;52.60;22.40;95782.00;;;;5105493;28;20217;-71
2022/04/06 12:26:11;;;;;;;6.47;3.70;;;22.70;52.60;23.20;95781.00;;;;5111507;27;20208;-71
2022/04/06 12:29:01;;;;;;;5.43;3.77;;;22.80;52.70;25.00;95780.00;;;;5107095;28;20702;-71
2022/04/06 12:31:50;;;;;;;4.63;4.23;;;23.10;53.30;21.90;95756.00;;;;5099700;28;20199;-70
2022/04/06 12:34:40;;;;;;;6.60;3.97;;;22.80;50.90;24.00;95763.00;;;;5105576;28;20683;-71
2022/04/06 12:37:32;;;;;;;5.10;4.10;;;22.90;53.50;21.00;95749.00;;;;5098608;28;20288;-74
2022/04/06 12:40:23;;;;;;;4.90;4.30;;;22.80;51.50;22.60;95755.00;;;;5110805;28;20228;-72
2022/04/06 12:43:25;;;;;;;7.67;4.27;;;22.50;52.20;22.00;95748.00;;;;5100130;28;20193;-70
2022/04/06 12:46:14;;;;;;;3.67;3.37;;;22.20;52.20;20.70;95743.00;;;;5099463;28;20218;-69
2022/04/06 12:49:22;;;;;;;5.77;3.63;;;21.80;51.90;21.60;95737.00;;;;5100150;28;20229;-70
2022/04/06 12:52:18;;;;;;;5.10;3.53;;;21.50;52.10;24.10;95739.00;;;;5091433;27;20204;-71
2022/04/06 12:55:10;;;;;;;5.27;3.87;;;21.90;53.50;21.50;95705.00;;;;5094214;27;20226;-69
2022/04/06 12:58:14;;;;;;;4.77;3.27;;;22.20;51.70;22.20;95708.00;;;;5100477;27;20207;-70
2022/04/06 13:01:09;;;;;;;3.70;3.30;;;21.90;52.50;22.40;95725.00;;;;5104110;28;20703;-70
2022/04/06 13:03:58;;;;;;;7.83;4.33;;;21.80;52.60;24.00;95723.00;;;;5106676;27;20627;-69
2022/04/06 13:06:47;;;;;;;7.17;4.80;;;22.00;54.00;23.70;95708.00;;;;5104778;28;20195;-70
2022/04/06 13:09:36;;;;;;;4.17;3.87;;;22.40;52.50;24.10;95703.00;;;;5103332;28;20594;-69
2022/04/06 13:12:28;;;;;;;6.90;4.90;;;22.60;51.90;24.00;95696.00;;;;5104027;28;20194;-69
2022/04/06 13:15:18;;;;;;;5.87;4.40;;;22.80;51.70;25.60;95699.00;;;;5101650;28;20229;-70
2022/04/06 13:18:10;;;;;;;7.00;4.70;;;23.20;51.90;25.40;95696.00;;;;5104009;28;20690;-69
2022/04/06 13:20:58;;;;;;;6.27;5.23;;;23.90;51.80;25.90;95697.00;;;;5105804;28;20236;-70
2022/04/06 13:23:47;;;;;;;4.43;4.03;;;24.30;51.30;26.10;95698.00;;;;5103006;27;20202;-69
2022/04/06 13:26:36;;;;;;;5.13;4.73;;;24.60;51.10;25.90;95678.00;;;;5101446;28;20212;-69
2022/04/06 13:29:25;;;;;;;4.77;4.37;;;24.90;49.50;26.00;95672.00;;;;5105756;27;20234;-69
2022/04/06 13:32:14;;;;;;;4.53;4.13;;;25.00;48.20;26.40;95668.00;;;;5104762;27;20205;-69
2022/04/06 13:35:06;;;;;;;5.53;4.22;;;25.10;48.80;25.90;95669.00;;;;5099742;28;20224;-70
2022/04/06 13:37:54;;;;;;;4.93;4.47;;;25.20;49.60;26.10;95671.00;;;;5103458;28;20216;-69
2022/04/06 13:40:43;;;;;;;5.25;4.75;;;25.10;48.90;26.00;95653.00;;;;5102905;28;20235;-69
2022/04/06 13:43:32;;;;;;;5.30;4.38;;;25.20;48.80;25.90;95650.00;;;;5102799;28;20203;-69
2022/04/06 13:46:21;;;;;;;4.78;4.35;;;25.40;49.40;25.50;95652.00;;;;5099277;28;20203;-69
2022/04/06 13:49:12;;;;;;;5.88;5.18;;;25.40;49.00;23.10;95642.00;;;;5101697;28;21143;-69
2022/04/06 13:52:04;;;;;;;6.97;5.60;;;24.90;48.10;23.00;95632.00;;;;5101577;28;20192;-69